Time;durP1;ratioP1;P1;durP2;ratioP2;P2;SDS_P1;SDS_P2;PMS_P1;PMS_P2;Temp;Humidity;BMP_temperature;BMP_pressure;BME280_temperature;BME280_humidity;BME280_pressure;Samples;Min_cycle;Max_cycle;Signal;HPM_P1;HPM_P2
2021/01/17 00:00:32;;;;;;;48.28;19.45;;;-1.50;99.90;;;;;;5012313;28;20045;-63
2021/01/17 00:02:59;;;;;;;53.40;19.20;;;-1.50;99.90;;;;;;5011892;28;20030;-63
2021/01/17 00:05:28;;;;;;;44.53;18.52;;;-1.50;99.90;;;;;;5011937;28;20034;-63
2021/01/17 00:07:56;;;;;;;53.10;19.85;;;-1.50;99.90;;;;;;5011894;28;20125;-63
2021/01/17 00:10:28;;;;;;;47.80;18.48;;;-1.50;99.90;;;;;;5012114;28;20041;-63
2021/01/17 00:12:56;;;;;;;42.20;18.42;;;-1.40;99.90;;;;;;5012160;28;20026;-63
2021/01/17 00:15:23;;;;;;;43.42;18.63;;;-1.50;99.90;;;;;;4994562;28;20074;-63
2021/01/17 00:17:49;;;;;;;47.63;19.75;;;-1.50;99.90;;;;;;5012051;28;20026;-63
2021/01/17 00:20:21;;;;;;;45.97;18.50;;;-1.40;99.90;;;;;;5012075;28;20095;-63
2021/01/17 00:22:48;;;;;;;49.15;18.75;;;-1.50;99.90;;;;;;5011765;28;20037;-63
2021/01/17 00:25:18;;;;;;;47.22;18.60;;;-1.40;99.90;;;;;;5011834;28;20026;-63
2021/01/17 00:27:52;;;;;;;44.78;18.00;;;-1.40;99.90;;;;;;5011969;28;20061;-63
2021/01/17 00:30:25;;;;;;;49.22;19.52;;;-1.50;99.90;;;;;;5011723;28;20034;-63
2021/01/17 00:32:54;;;;;;;51.30;17.90;;;-1.40;99.90;;;;;;5011853;28;20177;-63
2021/01/17 00:35:22;;;;;;;41.42;18.45;;;-1.40;99.90;;;;;;5011655;28;20067;-63
2021/01/17 00:37:53;;;;;;;44.10;17.77;;;-1.40;99.90;;;;;;5011377;28;20053;-63
2021/01/17 00:40:20;;;;;;;43.67;17.92;;;-1.30;99.90;;;;;;5011778;28;20085;-63
2021/01/17 00:42:48;;;;;;;43.17;17.60;;;-1.30;99.90;;;;;;5011540;28;20034;-63
2021/01/17 00:45:15;;;;;;;44.97;18.13;;;-1.30;99.90;;;;;;5011798;28;20041;-63
2021/01/17 00:47:47;;;;;;;46.25;18.90;;;-1.30;99.90;;;;;;5011667;28;20495;-63
2021/01/17 00:50:16;;;;;;;44.50;19.25;;;-1.30;99.90;;;;;;5012848;28;20037;-62
2021/01/17 00:52:42;;;;;;;43.95;18.77;;;-1.40;99.90;;;;;;5015148;28;20049;-63
2021/01/17 00:55:09;;;;;;;46.22;17.30;;;-1.50;99.90;;;;;;5015170;28;20034;-62
2021/01/17 00:57:35;;;;;;;49.63;20.13;;;-1.40;99.90;;;;;;5013993;28;20030;-62
2021/01/17 01:00:13;;;;;;;48.45;20.38;;;-1.40;99.90;;;;;;5014987;28;20040;-62
2021/01/17 01:02:40;;;;;;;45.75;18.65;;;-1.50;99.90;;;;;;5015097;28;20033;-62
2021/01/17 01:05:08;;;;;;;45.17;18.73;;;-1.40;99.90;;;;;;5015372;28;20026;-62
2021/01/17 01:07:35;;;;;;;45.83;19.27;;;-1.40;99.90;;;;;;5015042;28;20037;-62
2021/01/17 01:10:01;;;;;;;46.45;19.65;;;-1.40;99.90;;;;;;5015059;28;20034;-63
2021/01/17 01:12:27;;;;;;;48.50;20.38;;;-1.50;99.90;;;;;;5014913;28;20080;-62
2021/01/17 01:14:53;;;;;;;49.67;19.58;;;-1.40;99.90;;;;;;5014802;28;20034;-63
2021/01/17 01:17:19;;;;;;;47.72;20.10;;;-1.30;99.90;;;;;;5014860;28;20037;-62
2021/01/17 01:19:45;;;;;;;49.08;18.45;;;-1.30;99.90;;;;;;5014608;28;20034;-62
2021/01/17 01:22:11;;;;;;;47.00;18.02;;;-1.40;99.90;;;;;;5014777;28;20100;-62
2021/01/17 01:24:37;;;;;;;45.17;18.73;;;-1.40;99.90;;;;;;5014962;28;20022;-62
2021/01/17 01:27:03;;;;;;;49.33;18.75;;;-1.50;99.90;;;;;;5014764;28;20038;-62
2021/01/17 01:29:29;;;;;;;46.70;19.10;;;-1.40;99.90;;;;;;5014503;28;20114;-62
2021/01/17 01:31:55;;;;;;;46.55;18.48;;;-1.40;99.90;;;;;;5014690;28;20053;-62
2021/01/17 01:34:21;;;;;;;47.63;18.40;;;-1.40;99.90;;;;;;5014461;28;20114;-61
2021/01/17 01:36:47;;;;;;;45.08;18.02;;;-1.40;99.90;;;;;;5014210;28;20091;-61
2021/01/17 01:39:13;;;;;;;43.80;17.20;;;-1.40;99.90;;;;;;5014209;28;20046;-62
2021/01/17 01:41:42;;;;;;;44.10;17.17;;;-1.40;99.90;;;;;;5014259;28;20036;-61
2021/01/17 01:44:10;;;;;;;46.22;18.60;;;-1.40;99.90;;;;;;5014214;28;20566;-61
2021/01/17 01:46:41;;;;;;;44.70;18.60;;;-1.40;99.90;;;;;;5014148;28;20080;-62
2021/01/17 01:49:11;;;;;;;44.53;16.85;;;-1.40;99.90;;;;;;5012876;28;20030;-62
2021/01/17 01:51:38;;;;;;;42.60;16.73;;;-1.40;99.90;;;;;;5014114;28;20034;-62
2021/01/17 01:54:06;;;;;;;41.10;17.15;;;-1.30;99.90;;;;;;5012849;28;20041;-62
2021/01/17 01:56:33;;;;;;;40.22;16.08;;;-1.40;99.90;;;;;;5014343;28;20121;-62
2021/01/17 01:59:03;;;;;;;44.20;17.52;;;-1.40;99.90;;;;;;5014171;28;20026;-63
2021/01/17 02:01:29;;;;;;;41.58;18.25;;;-1.40;99.90;;;;;;5013241;28;20049;-63
2021/01/17 02:03:55;;;;;;;46.58;18.25;;;-1.30;99.90;;;;;;5013763;28;20049;-63
2021/01/17 02:06:23;;;;;;;36.10;16.00;;;-1.30;99.90;;;;;;5014159;28;20046;-63
2021/01/17 02:09:11;;;;;;;38.78;16.00;;;-1.20;99.90;;;;;;5013639;28;20125;-63
2021/01/17 02:11:40;;;;;;;39.88;16.80;;;-1.20;99.90;;;;;;5012678;28;20046;-63
2021/01/17 02:14:27;;;;;;;41.03;17.15;;;-1.10;99.90;;;;;;5013940;28;20061;-63
2021/01/17 02:16:55;;;;;;;42.10;17.40;;;-1.00;99.90;;;;;;5012421;28;20149;-63
2021/01/17 02:19:29;;;;;;;41.83;16.92;;;-1.00;99.90;;;;;;5013830;28;20034;-62
2021/01/17 02:21:58;;;;;;;42.58;17.75;;;-1.10;99.90;;;;;;5013571;28;20105;-62
2021/01/17 02:25:13;;;;;;;44.67;19.10;;;-1.20;99.90;;;;;;5013580;28;20116;-62
2021/01/17 02:27:42;;;;;;;42.63;16.90;;;-1.20;99.90;;;;;;5008191;28;20041;-62
2021/01/17 02:30:12;;;;;;;44.60;18.42;;;-1.00;99.90;;;;;;5012321;28;20038;-62
2021/01/17 02:32:50;;;;;;;37.47;16.98;;;-1.00;99.90;;;;;;4996086;28;20033;-62
2021/01/17 02:35:17;;;;;;;39.50;16.00;;;-1.00;99.90;;;;;;5013178;28;20030;-62
2021/01/17 02:38:33;;;;;;;47.45;20.02;;;-1.00;99.90;;;;;;5012084;28;20034;-62
2021/01/17 02:41:02;;;;;;;38.42;16.23;;;-1.00;99.90;;;;;;4991053;28;20073;-62
2021/01/17 02:43:28;;;;;;;45.03;17.55;;;-1.00;99.90;;;;;;4991145;28;20034;-62
2021/01/17 02:45:54;;;;;;;41.80;16.23;;;-1.10;99.90;;;;;;4991168;28;20046;-62
2021/01/17 02:48:20;;;;;;;42.88;17.45;;;-1.10;99.90;;;;;;4991258;28;20103;-62
2021/01/17 02:50:45;;;;;;;42.38;17.02;;;-1.10;99.90;;;;;;4991096;28;20036;-62
2021/01/17 02:53:26;;;;;;;40.67;16.80;;;-1.10;99.90;;;;;;4991055;28;20050;-62
2021/01/17 02:55:55;;;;;;;39.60;17.17;;;-1.00;99.90;;;;;;4990929;28;20038;-62
2021/01/17 02:58:24;;;;;;;36.65;15.85;;;-0.90;99.90;;;;;;4974925;28;20050;-62
2021/01/17 03:00:57;;;;;;;38.53;16.27;;;-1.00;99.90;;;;;;4974691;28;20045;-62
2021/01/17 03:03:34;;;;;;;40.22;17.17;;;-0.90;99.90;;;;;;4990983;28;20096;-62
2021/01/17 03:06:07;;;;;;;38.13;17.05;;;-0.90;99.90;;;;;;4975165;28;20096;-62
2021/01/17 03:08:36;;;;;;;34.75;15.20;;;-1.00;99.90;;;;;;4975035;28;20030;-62
2021/01/17 03:11:02;;;;;;;34.38;14.68;;;-1.10;99.90;;;;;;4995800;28;20050;-63
2021/01/17 03:13:31;;;;;;;41.92;17.27;;;-1.00;99.90;;;;;;5012980;28;20112;-63
2021/01/17 03:15:57;;;;;;;38.42;15.60;;;-0.90;99.90;;;;;;5011389;28;20036;-63
2021/01/17 03:18:23;;;;;;;41.38;17.15;;;-1.00;99.90;;;;;;5012897;28;20033;-62
2021/01/17 03:20:49;;;;;;;34.40;15.07;;;-1.10;99.90;;;;;;5012581;28;20046;-63
2021/01/17 03:23:15;;;;;;;35.83;15.50;;;-1.00;99.90;;;;;;5012538;28;20034;-62
2021/01/17 03:25:41;;;;;;;35.30;14.80;;;-1.10;99.90;;;;;;5012555;28;20034;-62
2021/01/17 03:28:07;;;;;;;35.15;16.00;;;-1.10;99.90;;;;;;5012348;28;20101;-62
2021/01/17 03:30:33;;;;;;;33.65;14.35;;;-0.90;99.90;;;;;;5012658;28;20026;-62
2021/01/17 03:32:59;;;;;;;38.35;15.45;;;-0.90;99.90;;;;;;5012315;28;20379;-62
2021/01/17 03:35:25;;;;;;;33.88;15.50;;;-0.90;99.90;;;;;;5012341;28;20382;-62
2021/01/17 03:37:50;;;;;;;36.08;15.02;;;-1.10;99.90;;;;;;5012384;28;20129;-62
2021/01/17 03:40:16;;;;;;;38.20;15.88;;;-1.00;99.90;;;;;;5012638;28;20038;-63
2021/01/17 03:42:42;;;;;;;37.63;14.68;;;-1.00;99.90;;;;;;5012383;28;20022;-62
2021/01/17 03:45:09;;;;;;;35.13;15.23;;;-1.00;99.90;;;;;;5012242;28;20037;-62
2021/01/17 03:47:35;;;;;;;35.92;15.75;;;-0.90;99.90;;;;;;5012321;28;20030;-63
2021/01/17 03:50:01;;;;;;;34.75;14.93;;;-0.90;99.90;;;;;;5012198;28;20076;-62
2021/01/17 03:52:27;;;;;;;38.13;15.35;;;-1.00;99.90;;;;;;5012163;28;20030;-62
2021/01/17 03:54:52;;;;;;;35.70;15.50;;;-0.90;99.90;;;;;;5012093;28;20038;-61
2021/01/17 03:57:18;;;;;;;36.72;14.80;;;-0.90;99.90;;;;;;5012459;28;20447;-61
2021/01/17 03:59:44;;;;;;;37.50;14.25;;;-0.80;99.90;;;;;;5012261;28;20070;-61
2021/01/17 04:02:10;;;;;;;31.48;14.27;;;-0.80;99.90;;;;;;5012135;28;20038;-61
2021/01/17 04:04:36;;;;;;;36.72;15.18;;;-0.80;99.90;;;;;;5012282;28;20105;-62
2021/01/17 04:07:02;;;;;;;35.92;14.65;;;-0.80;99.90;;;;;;5012054;28;20081;-61
2021/01/17 04:09:28;;;;;;;36.20;14.95;;;-0.80;99.90;;;;;;5012333;28;20069;-61
2021/01/17 04:11:54;;;;;;;34.90;15.57;;;-0.80;99.90;;;;;;5011960;28;20041;-61
2021/01/17 04:14:20;;;;;;;30.48;12.95;;;-0.80;99.90;;;;;;5012271;28;20084;-61
2021/01/17 04:16:51;;;;;;;32.22;14.20;;;-0.80;99.90;;;;;;5012040;28;20092;-61
2021/01/17 04:19:17;;;;;;;38.25;15.85;;;-0.80;99.90;;;;;;5011980;28;20137;-62
2021/01/17 04:21:43;;;;;;;32.60;15.38;;;-0.80;99.90;;;;;;5012095;28;20068;-62
2021/01/17 04:24:10;;;;;;;33.88;14.55;;;-1.00;99.90;;;;;;5011856;28;20030;-63
2021/01/17 04:26:35;;;;;;;34.65;14.30;;;-1.00;99.90;;;;;;5014109;28;20103;-62
2021/01/17 04:29:01;;;;;;;38.50;16.15;;;-0.90;99.90;;;;;;5015778;28;20038;-63
2021/01/17 04:31:27;;;;;;;32.55;15.13;;;-0.90;99.90;;;;;;5015527;28;20029;-62
2021/01/17 04:33:53;;;;;;;37.55;16.05;;;-0.80;99.90;;;;;;5015782;28;20137;-62
2021/01/17 04:36:19;;;;;;;38.10;16.08;;;-0.90;99.90;;;;;;5015522;28;20088;-62
2021/01/17 04:38:45;;;;;;;36.53;15.48;;;-0.90;99.90;;;;;;5015462;28;20119;-62
2021/01/17 04:41:14;;;;;;;33.72;14.35;;;-0.90;99.90;;;;;;5015389;28;20034;-63
2021/01/17 04:43:56;;;;;;;35.75;15.35;;;-0.80;99.90;;;;;;5015437;28;20030;-63
2021/01/17 04:46:29;;;;;;;38.67;15.70;;;-0.90;99.90;;;;;;5014415;28;20033;-62
2021/01/17 04:49:07;;;;;;;32.10;14.65;;;-1.00;99.90;;;;;;5014083;28;20037;-62
2021/01/17 04:51:34;;;;;;;35.20;15.43;;;-1.10;99.90;;;;;;5015425;28;20034;-62
2021/01/17 04:54:03;;;;;;;34.58;14.73;;;-1.10;99.90;;;;;;5015087;28;20033;-63
2021/01/17 04:56:52;;;;;;;36.17;16.30;;;-1.10;99.90;;;;;;5015133;28;20033;-63
2021/01/17 04:59:25;;;;;;;41.90;15.55;;;-1.10;99.90;;;;;;5014203;28;20038;-62
2021/01/17 05:02:18;;;;;;;37.95;16.10;;;-1.10;99.90;;;;;;5013971;28;20038;-62
2021/01/17 05:05:08;;;;;;;36.38;14.82;;;-1.00;99.90;;;;;;5014065;28;20033;-63
2021/01/17 05:07:37;;;;;;;33.70;15.27;;;-1.00;99.90;;;;;;5015360;28;20034;-62
2021/01/17 05:10:11;;;;;;;33.65;15.48;;;-1.10;99.90;;;;;;5015021;28;20049;-63
2021/01/17 05:12:52;;;;;;;34.28;15.23;;;-1.00;99.90;;;;;;5014940;28;20390;-63
2021/01/17 05:15:23;;;;;;;41.85;15.48;;;-0.90;99.90;;;;;;5014616;28;20041;-63
2021/01/17 05:17:49;;;;;;;36.77;15.00;;;-0.90;99.90;;;;;;5015015;28;20040;-63
2021/01/17 05:20:15;;;;;;;39.33;15.60;;;-0.90;99.90;;;;;;5014671;28;20084;-63
2021/01/17 05:22:44;;;;;;;39.58;15.45;;;-1.00;99.90;;;;;;5014812;28;20045;-63
2021/01/17 05:25:10;;;;;;;38.03;16.38;;;-0.90;99.90;;;;;;5014507;28;20034;-63
2021/01/17 05:27:37;;;;;;;41.38;17.98;;;-1.00;99.90;;;;;;5014575;28;20026;-63
2021/01/17 05:30:07;;;;;;;37.92;15.57;;;-1.10;99.90;;;;;;5014326;28;20133;-63
2021/01/17 05:32:33;;;;;;;36.33;15.63;;;-1.10;99.90;;;;;;5014906;28;20064;-63
2021/01/17 05:35:00;;;;;;;44.88;16.58;;;-1.00;99.90;;;;;;5014363;28;20034;-63
2021/01/17 05:37:26;;;;;;;37.20;16.25;;;-0.90;99.90;;;;;;5013110;28;20141;-63
2021/01/17 05:39:55;;;;;;;44.30;16.73;;;-0.90;99.90;;;;;;5014594;28;20449;-63
2021/01/17 05:42:24;;;;;;;37.72;15.35;;;-0.90;99.90;;;;;;5014271;28;20129;-63
2021/01/17 05:44:54;;;;;;;41.13;16.92;;;-0.80;99.90;;;;;;5014162;28;20037;-63
2021/01/17 05:47:22;;;;;;;39.20;15.88;;;-0.80;99.90;;;;;;5014335;28;20068;-63
2021/01/17 05:50:03;;;;;;;41.83;16.33;;;-0.80;99.90;;;;;;5014190;28;20141;-63
2021/01/17 05:52:30;;;;;;;37.10;17.15;;;-0.80;99.90;;;;;;5013181;28;20030;-64
2021/01/17 05:54:56;;;;;;;37.20;16.15;;;-0.80;99.90;;;;;;5014087;28;20041;-63
2021/01/17 05:57:25;;;;;;;43.45;16.33;;;-0.90;99.90;;;;;;5012676;28;20037;-63
2021/01/17 05:59:52;;;;;;;42.28;17.55;;;-0.90;99.90;;;;;;5014112;28;20057;-63
2021/01/17 06:02:21;;;;;;;38.40;16.48;;;-0.90;99.90;;;;;;5013925;28;20058;-63
2021/01/17 06:04:59;;;;;;;40.47;16.58;;;-0.90;99.90;;;;;;5013459;28;20030;-61
2021/01/17 06:07:31;;;;;;;44.05;18.42;;;-0.90;99.90;;;;;;5012539;28;20112;-61
2021/01/17 06:10:06;;;;;;;36.70;17.45;;;-0.90;99.90;;;;;;5013455;28;20029;-62
2021/01/17 06:12:38;;;;;;;44.28;17.50;;;-0.90;99.90;;;;;;5013642;28;20038;-61
2021/01/17 06:15:09;;;;;;;40.00;15.82;;;-0.80;99.90;;;;;;5013546;28;20088;-61
2021/01/17 06:17:45;;;;;;;38.47;17.23;;;-0.70;99.90;;;;;;5001296;28;20038;-66
2021/01/17 06:20:24;;;;;;;39.33;17.23;;;-0.70;99.90;;;;;;4993726;28;20027;-63
2021/01/17 06:23:03;;;;;;;40.35;16.75;;;-0.70;99.90;;;;;;4992738;28;20030;-62
2021/01/17 06:25:30;;;;;;;39.42;17.38;;;-0.70;99.90;;;;;;4992876;28;20036;-62
2021/01/17 06:28:14;;;;;;;53.03;18.38;;;-0.80;99.90;;;;;;4994236;28;20030;-63
2021/01/17 06:30:41;;;;;;;47.90;18.50;;;-1.00;99.90;;;;;;4993691;28;20039;-63
2021/01/17 06:33:19;;;;;;;49.47;19.05;;;-0.90;99.90;;;;;;4992530;28;20035;-62
2021/01/17 06:35:46;;;;;;;41.78;18.20;;;-0.90;99.90;;;;;;4993689;28;20037;-65
2021/01/17 06:38:21;;;;;;;46.47;18.23;;;-1.00;99.90;;;;;;4992127;28;20058;-64
2021/01/17 06:40:49;;;;;;;50.30;19.05;;;-0.90;99.90;;;;;;4993306;28;20074;-64
2021/01/17 06:43:16;;;;;;;41.72;16.90;;;-1.00;99.90;;;;;;4993328;28;20030;-64
2021/01/17 06:45:48;;;;;;;47.35;18.48;;;-0.90;99.90;;;;;;4993475;28;20082;-63
2021/01/17 06:48:26;;;;;;;48.97;19.20;;;-0.90;99.90;;;;;;4975530;28;20034;-63
2021/01/17 06:50:52;;;;;;;51.08;19.73;;;-0.90;99.90;;;;;;4993397;28;20041;-63
2021/01/17 06:53:23;;;;;;;45.00;18.13;;;-0.80;99.90;;;;;;4993541;28;20034;-63
2021/01/17 06:56:13;;;;;;;44.53;19.02;;;-0.80;99.90;;;;;;4992342;28;20034;-65
2021/01/17 06:58:41;;;;;;;48.40;18.77;;;-0.90;99.90;;;;;;4992311;28;20035;-63
2021/01/17 07:01:08;;;;;;;44.45;18.20;;;-0.80;99.90;;;;;;4993054;28;20034;-64
2021/01/17 07:03:50;;;;;;;50.65;18.77;;;-0.80;99.90;;;;;;4993044;28;20022;-63
2021/01/17 07:07:06;;;;;;;45.00;18.55;;;-0.90;99.90;;;;;;4991824;28;20035;-63
2021/01/17 07:09:50;;;;;;;50.83;19.42;;;-0.80;99.90;;;;;;4993070;28;20042;-62
2021/01/17 07:12:31;;;;;;;46.10;17.90;;;-0.80;99.90;;;;;;4993142;28;20026;-62
2021/01/17 07:15:11;;;;;;;43.72;17.52;;;-0.70;99.90;;;;;;4992000;28;20046;-63
2021/01/17 07:17:42;;;;;;;44.53;18.08;;;-0.60;99.90;;;;;;4993235;28;20037;-63
2021/01/17 07:20:12;;;;;;;53.92;19.80;;;-0.70;99.90;;;;;;4992698;28;20061;-62
2021/01/17 07:22:42;;;;;;;52.03;19.25;;;-0.80;99.90;;;;;;4992884;28;20077;-63
2021/01/17 07:25:11;;;;;;;42.88;18.15;;;-0.80;99.90;;;;;;4992947;28;20041;-63
2021/01/17 07:27:51;;;;;;;46.08;18.85;;;-0.80;99.90;;;;;;4991586;28;20062;-63
2021/01/17 07:30:36;;;;;;;46.15;19.38;;;-0.80;99.90;;;;;;4992679;28;20049;-64
2021/01/17 07:33:07;;;;;;;49.88;19.45;;;-0.70;99.90;;;;;;4991666;28;20039;-64
2021/01/17 07:35:45;;;;;;;45.42;19.17;;;-0.70;99.90;;;;;;4992911;28;20030;-64
2021/01/17 07:38:41;;;;;;;51.20;19.70;;;-0.70;99.90;;;;;;4992369;28;20050;-64
2021/01/17 07:41:14;;;;;;;48.85;19.65;;;-0.60;99.90;;;;;;4992526;28;20085;-63
2021/01/17 07:43:45;;;;;;;41.45;18.02;;;-0.80;99.90;;;;;;4992316;28;20037;-62
2021/01/17 07:46:16;;;;;;;50.28;19.38;;;-0.80;99.90;;;;;;4992694;28;20065;-64
2021/01/17 07:48:45;;;;;;;54.00;19.75;;;-0.80;99.90;;;;;;4991078;28;20038;-64
2021/01/17 07:51:14;;;;;;;46.85;19.45;;;-0.70;99.90;;;;;;4990335;28;20023;-64
2021/01/17 07:53:54;;;;;;;47.97;21.10;;;-0.70;99.90;;;;;;4991737;28;20041;-64
2021/01/17 07:56:31;;;;;;;47.90;20.20;;;-0.70;99.90;;;;;;4990896;28;20034;-64
2021/01/17 07:59:07;;;;;;;50.95;20.20;;;-0.70;99.90;;;;;;4990815;28;20037;-64
2021/01/17 08:01:38;;;;;;;50.80;20.40;;;-0.60;99.90;;;;;;4994462;28;20031;-64
2021/01/17 08:04:04;;;;;;;49.30;20.17;;;-0.50;99.90;;;;;;4994758;28;20042;-64
2021/01/17 08:06:35;;;;;;;50.08;19.77;;;-0.50;99.90;;;;;;4994672;28;20068;-64
2021/01/17 08:09:12;;;;;;;48.58;19.50;;;-0.40;99.90;;;;;;4995382;28;20034;-64
2021/01/17 08:11:57;;;;;;;47.55;19.88;;;-0.40;99.90;;;;;;4996157;28;20030;-63
2021/01/17 08:14:40;;;;;;;47.38;19.35;;;-0.40;99.90;;;;;;4994952;28;20041;-64
2021/01/17 08:17:18;;;;;;;47.42;20.15;;;-0.30;99.90;;;;;;4996351;28;20092;-64
2021/01/17 08:19:52;;;;;;;41.50;18.13;;;-0.30;99.90;;;;;;4996263;28;20042;-63
2021/01/17 08:22:18;;;;;;;45.67;18.48;;;-0.30;99.90;;;;;;4996251;28;20030;-63
2021/01/17 08:24:48;;;;;;;47.15;18.42;;;-0.20;99.90;;;;;;4996275;28;20109;-64
2021/01/17 08:27:36;;;;;;;47.57;18.40;;;-0.10;99.90;;;;;;4995916;28;20030;-64
2021/01/17 08:30:08;;;;;;;47.70;20.17;;;-0.20;99.90;;;;;;4995859;28;20034;-64
2021/01/17 08:32:45;;;;;;;50.08;18.83;;;-0.30;99.90;;;;;;4995800;28;20027;-65
2021/01/17 08:35:20;;;;;;;47.25;20.02;;;-0.30;99.90;;;;;;4995723;28;20038;-64
2021/01/17 08:37:54;;;;;;;51.58;19.80;;;-0.20;99.90;;;;;;4995523;28;20050;-64
2021/01/17 08:40:29;;;;;;;47.25;19.98;;;0.00;99.90;;;;;;4995559;28;20031;-64
2021/01/17 08:42:57;;;;;;;50.35;18.50;;;-0.10;99.90;;;;;;4996001;28;20034;-64
2021/01/17 08:45:23;;;;;;;48.40;19.70;;;-0.10;99.90;;;;;;4994384;28;20084;-64
2021/01/17 08:48:02;;;;;;;50.45;19.88;;;0.00;99.90;;;;;;4995154;28;20038;-64
2021/01/17 08:50:36;;;;;;;54.67;21.85;;;0.00;99.90;;;;;;4995004;28;20041;-64
2021/01/17 08:53:26;;;;;;;56.58;20.58;;;0.10;99.90;;;;;;4995480;28;20041;-63
2021/01/17 08:55:57;;;;;;;58.92;21.60;;;0.20;99.90;;;;;;4994821;28;20056;-63
2021/01/17 08:58:26;;;;;;;45.58;18.83;;;0.20;99.90;;;;;;4995656;28;20031;-64
2021/01/17 09:00:52;;;;;;;47.00;19.35;;;0.20;99.90;;;;;;4995438;28;20077;-63
2021/01/17 09:03:41;;;;;;;46.35;18.73;;;0.30;99.90;;;;;;4993865;28;20085;-63
2021/01/17 09:06:13;;;;;;;46.55;20.20;;;0.40;99.90;;;;;;4995346;28;20039;-62
2021/01/17 09:09:03;;;;;;;47.50;19.55;;;0.40;99.90;;;;;;4995364;28;20035;-62
2021/01/17 09:11:29;;;;;;;48.53;20.65;;;0.50;99.90;;;;;;4994143;28;20114;-62
2021/01/17 09:14:26;;;;;;;47.58;19.48;;;0.60;99.90;;;;;;4995316;28;20138;-62
2021/01/17 09:17:07;;;;;;;50.08;19.38;;;0.60;99.90;;;;;;4994956;28;20045;-62
2021/01/17 09:19:38;;;;;;;50.13;20.20;;;0.50;99.90;;;;;;4994863;28;20081;-63
2021/01/17 09:22:06;;;;;;;103.23;41.40;;;0.40;99.90;;;;;;4995107;28;20045;-63
2021/01/17 09:24:35;;;;;;;69.50;28.05;;;0.50;99.90;;;;;;4994819;28;20042;-61
2021/01/17 09:27:04;;;;;;;48.17;19.67;;;0.60;99.90;;;;;;4994804;28;20060;-65
2021/01/17 09:29:36;;;;;;;49.03;20.45;;;0.60;99.90;;;;;;4994880;28;20027;-65
2021/01/17 09:32:12;;;;;;;44.55;20.70;;;0.70;99.90;;;;;;4994989;28;20030;-63
2021/01/17 09:34:42;;;;;;;49.60;20.90;;;0.70;99.90;;;;;;4995238;28;20042;-64
2021/01/17 09:37:12;;;;;;;48.58;18.95;;;0.70;99.90;;;;;;4995005;28;20092;-65
2021/01/17 09:39:41;;;;;;;53.17;22.27;;;0.40;99.90;;;;;;4992862;28;20175;-65
2021/01/17 09:42:09;;;;;;;47.20;20.30;;;0.40;99.90;;;;;;4994880;28;20026;-63
2021/01/17 09:44:37;;;;;;;50.00;20.98;;;0.40;99.90;;;;;;4994755;28;20042;-64
2021/01/17 09:47:12;;;;;;;47.25;20.05;;;0.50;99.90;;;;;;4994501;28;20062;-64
2021/01/17 09:49:38;;;;;;;53.03;20.48;;;0.60;99.90;;;;;;4994510;28;20045;-64
2021/01/17 09:52:04;;;;;;;40.47;18.85;;;0.50;99.90;;;;;;4994460;28;20027;-63
2021/01/17 09:54:30;;;;;;;47.25;19.52;;;0.60;99.90;;;;;;4994456;28;20034;-64
2021/01/17 09:56:55;;;;;;;47.45;19.25;;;0.80;99.90;;;;;;4994384;28;20364;-64
2021/01/17 09:59:23;;;;;;;44.85;20.13;;;0.80;99.90;;;;;;4994209;28;20080;-66
2021/01/17 10:01:51;;;;;;;51.22;20.10;;;0.80;99.90;;;;;;4994128;28;20026;-66
2021/01/17 10:04:22;;;;;;;49.83;20.90;;;0.50;99.90;;;;;;4994334;28;20041;-66
2021/01/17 10:06:52;;;;;;;52.15;22.13;;;0.40;99.90;;;;;;4994513;28;20034;-65
2021/01/17 10:09:20;;;;;;;44.25;19.17;;;0.60;99.90;;;;;;4992789;28;20093;-66
2021/01/17 10:11:56;;;;;;;41.88;19.40;;;0.90;99.90;;;;;;4993887;28;20058;-66
2021/01/17 10:14:25;;;;;;;48.97;19.95;;;1.00;99.90;;;;;;4994006;28;20042;-67
2021/01/17 10:16:56;;;;;;;68.18;27.33;;;1.20;99.90;;;;;;4993929;28;20089;-67
2021/01/17 10:19:32;;;;;;;51.45;21.98;;;1.10;99.90;;;;;;4993825;28;20065;-66
2021/01/17 10:22:00;;;;;;;44.53;20.83;;;1.20;99.90;;;;;;4994149;28;20034;-65
2021/01/17 10:24:32;;;;;;;44.97;19.27;;;1.10;99.90;;;;;;4993336;28;20058;-65
2021/01/17 10:27:03;;;;;;;43.47;20.90;;;1.20;99.90;;;;;;4993873;28;20044;-64
2021/01/17 10:29:34;;;;;;;43.88;19.25;;;1.00;99.90;;;;;;4993725;28;20031;-64
2021/01/17 10:32:06;;;;;;;44.35;19.83;;;1.00;99.90;;;;;;4993547;28;20034;-64
2021/01/17 10:34:55;;;;;;;41.08;18.42;;;1.30;99.90;;;;;;4993470;28;20057;-63
2021/01/17 10:37:21;;;;;;;40.13;18.33;;;1.50;99.90;;;;;;4993124;28;20038;-64
2021/01/17 10:39:47;;;;;;;43.97;18.95;;;1.50;99.90;;;;;;4993156;28;20061;-63
2021/01/17 10:42:24;;;;;;;41.95;20.15;;;2.00;99.90;;;;;;4992573;28;20084;-64
2021/01/17 10:45:04;;;;;;;38.63;17.27;;;1.70;99.90;;;;;;4992359;28;20034;-65
2021/01/17 10:47:50;;;;;;;43.20;18.88;;;2.20;99.90;;;;;;4993331;28;20033;-64
2021/01/17 10:50:20;;;;;;;49.15;19.70;;;2.00;99.90;;;;;;4992598;28;20042;-64
2021/01/17 10:53:06;;;;;;;48.55;19.95;;;2.00;99.90;;;;;;4992074;28;20038;-63
2021/01/17 10:55:39;;;;;;;43.50;19.25;;;1.70;99.90;;;;;;4991883;28;20034;-63
2021/01/17 10:58:08;;;;;;;41.67;18.88;;;1.50;99.90;;;;;;4992130;28;20030;-63
2021/01/17 11:00:34;;;;;;;43.80;19.55;;;1.70;99.90;;;;;;4993158;28;20058;-63
2021/01/17 11:03:02;;;;;;;41.50;19.13;;;1.80;99.90;;;;;;4993395;28;20069;-63
2021/01/17 11:05:29;;;;;;;41.45;17.05;;;1.90;99.90;;;;;;4993045;28;20057;-62
2021/01/17 11:07:55;;;;;;;45.35;20.42;;;1.70;99.90;;;;;;4991852;28;20034;-63
2021/01/17 11:10:21;;;;;;;39.05;18.73;;;1.80;99.90;;;;;;4993243;28;20029;-63
2021/01/17 11:12:49;;;;;;;39.60;17.98;;;1.80;99.90;;;;;;4992972;28;20042;-63
2021/01/17 11:15:21;;;;;;;37.40;18.13;;;2.00;99.90;;;;;;4992958;28;20026;-68
2021/01/17 11:17:58;;;;;;;42.28;17.75;;;2.30;99.90;;;;;;4993066;28;20030;-66
2021/01/17 11:20:30;;;;;;;40.60;18.38;;;2.40;99.90;;;;;;4992735;28;20039;-63
2021/01/17 11:23:07;;;;;;;40.78;17.67;;;2.40;99.90;;;;;;4993155;28;20031;-63
2021/01/17 11:25:34;;;;;;;40.30;17.08;;;1.90;99.90;;;;;;4993138;28;20037;-64
2021/01/17 11:28:03;;;;;;;44.25;18.67;;;2.00;99.90;;;;;;4993056;28;20387;-64
2021/01/17 11:30:32;;;;;;;37.65;17.48;;;2.00;99.90;;;;;;4991574;28;20030;-62
2021/01/17 11:33:12;;;;;;;38.05;17.05;;;2.20;99.90;;;;;;4992800;28;20022;-63
2021/01/17 11:35:40;;;;;;;41.45;17.60;;;2.30;99.90;;;;;;4991804;28;20042;-63
2021/01/17 11:38:08;;;;;;;40.55;17.67;;;1.70;99.90;;;;;;4992585;28;20042;-64
2021/01/17 11:40:35;;;;;;;44.92;18.55;;;1.50;99.90;;;;;;4992745;28;20041;-63
2021/01/17 11:43:13;;;;;;;45.83;18.63;;;1.70;99.90;;;;;;4992490;28;20049;-64
2021/01/17 11:45:44;;;;;;;42.78;19.58;;;1.80;99.90;;;;;;4992535;28;20038;-63
2021/01/17 11:48:12;;;;;;;41.80;19.38;;;1.70;99.90;;;;;;4992424;28;20037;-64
2021/01/17 11:50:44;;;;;;;47.03;19.27;;;1.50;99.90;;;;;;4992294;28;20050;-64
2021/01/17 11:53:12;;;;;;;44.15;19.88;;;1.50;99.90;;;;;;4991260;28;20042;-63
2021/01/17 11:55:39;;;;;;;42.85;19.55;;;1.50;99.90;;;;;;4992341;28;20026;-63
2021/01/17 11:58:14;;;;;;;44.10;19.42;;;1.40;99.90;;;;;;4992324;28;20037;-63
2021/01/17 12:00:57;;;;;;;43.80;20.20;;;1.40;99.90;;;;;;4992504;28;20034;-63
2021/01/17 12:03:28;;;;;;;41.85;19.27;;;1.40;99.90;;;;;;4992383;28;20031;-63
2021/01/17 12:06:06;;;;;;;42.65;18.38;;;1.30;99.90;;;;;;4992325;28;20034;-63
2021/01/17 12:08:51;;;;;;;49.28;19.98;;;1.30;99.90;;;;;;4992568;28;20031;-63
2021/01/17 12:11:44;;;;;;;46.63;19.70;;;1.50;99.90;;;;;;4991948;28;20040;-63
2021/01/17 12:14:13;;;;;;;41.95;18.77;;;1.60;99.90;;;;;;4991327;28;20117;-64
2021/01/17 12:16:48;;;;;;;45.88;19.02;;;1.70;99.90;;;;;;4991890;28;20170;-65
2021/01/17 12:19:16;;;;;;;47.17;19.27;;;1.90;99.90;;;;;;4992230;28;20030;-64
2021/01/17 12:21:45;;;;;;;45.35;17.98;;;1.50;99.90;;;;;;4992078;28;20117;-64
2021/01/17 12:24:15;;;;;;;46.17;19.77;;;1.50;99.90;;;;;;5007375;28;20069;-63
2021/01/17 12:26:44;;;;;;;43.23;17.70;;;1.30;99.90;;;;;;4991831;28;20062;-64
2021/01/17 12:29:12;;;;;;;46.15;19.27;;;1.20;99.90;;;;;;4991947;28;20125;-63
2021/01/17 12:31:39;;;;;;;47.75;20.13;;;1.20;99.90;;;;;;4991913;28;20034;-64
2021/01/17 12:34:06;;;;;;;50.08;19.20;;;1.20;99.90;;;;;;4992493;28;20117;-64
2021/01/17 12:36:33;;;;;;;50.15;19.48;;;1.20;99.90;;;;;;4991964;28;20049;-64
2021/01/17 12:39:02;;;;;;;50.03;21.52;;;1.10;99.90;;;;;;4991850;28;20035;-63
2021/01/17 12:41:34;;;;;;;54.70;22.63;;;1.10;99.90;;;;;;4991814;28;20101;-64
2021/01/17 12:44:01;;;;;;;54.28;21.88;;;1.20;99.90;;;;;;4992105;28;20038;-63
2021/01/17 12:46:28;;;;;;;54.30;23.40;;;1.30;99.90;;;;;;4993488;28;20030;-63
2021/01/17 12:48:55;;;;;;;48.70;19.92;;;1.20;99.90;;;;;;4995556;28;20037;-65
2021/01/17 12:51:22;;;;;;;48.70;20.95;;;1.30;99.90;;;;;;4995556;28;20058;-62